createdAt,value
2019-02-12T00:00:25.480Z,2.40
2019-02-12T00:02:54.863Z,2.50
2019-02-12T00:05:23.778Z,1.93
2019-02-12T00:07:52.695Z,2.40
2019-02-12T00:10:22.406Z,2.80
2019-02-12T00:12:51.298Z,2.53
2019-02-12T00:15:20.519Z,2.93
2019-02-12T00:17:49.323Z,2.50
2019-02-12T00:20:18.736Z,2.13
2019-02-12T00:22:47.905Z,1.70
2019-02-12T00:25:16.860Z,2.40
2019-02-12T00:27:45.681Z,2.03
2019-02-12T00:30:14.573Z,2.10
2019-02-12T00:32:43.780Z,2.43
2019-02-12T00:35:12.740Z,2.63
2019-02-12T00:37:41.587Z,2.23
2019-02-12T00:40:10.704Z,2.30
2019-02-12T00:42:39.693Z,2.13
2019-02-12T00:45:09.049Z,2.13
2019-02-12T00:47:37.937Z,2.17
2019-02-12T00:50:08.091Z,1.80
2019-02-12T00:52:37.144Z,1.70
2019-02-12T00:55:06.887Z,2.87
2019-02-12T00:57:35.848Z,2.10
2019-02-12T01:00:06.016Z,3.03
2019-02-12T01:02:34.809Z,2.20
2019-02-12T01:05:04.420Z,1.90
2019-02-12T01:07:33.678Z,2.13
2019-02-12T01:10:02.552Z,2.40
2019-02-12T01:12:31.357Z,2.43
2019-02-12T01:15:00.212Z,2.00
2019-02-12T01:17:29.031Z,1.97
2019-02-12T01:19:58.092Z,2.23
2019-02-12T01:22:26.943Z,2.40
2019-02-12T01:24:56.000Z,3.30
2019-02-12T01:27:24.780Z,3.27
2019-02-12T01:29:53.572Z,2.53
2019-02-12T01:32:22.658Z,2.50
2019-02-12T01:34:51.464Z,2.43
2019-02-12T01:37:20.245Z,2.03
2019-02-12T01:39:49.111Z,2.30
2019-02-12T01:42:17.918Z,2.13
2019-02-12T01:44:46.722Z,1.80
2019-02-12T01:47:15.798Z,1.80
2019-02-12T01:49:44.885Z,2.27
2019-02-12T01:52:13.764Z,2.30
2019-02-12T01:54:42.560Z,2.50
2019-02-12T01:57:11.435Z,2.20
2019-02-12T01:59:40.304Z,2.40
2019-02-12T02:02:09.117Z,2.40
2019-02-12T02:04:37.977Z,1.90
2019-02-12T02:07:07.122Z,2.60
2019-02-12T02:09:35.936Z,2.40
2019-02-12T02:12:04.802Z,2.40
2019-02-12T02:14:33.704Z,1.87
2019-02-12T02:17:02.501Z,2.17
2019-02-12T02:19:31.276Z,1.70
2019-02-12T02:22:00.095Z,2.47
2019-02-12T02:24:28.942Z,3.67
2019-02-12T02:26:57.739Z,3.20
2019-02-12T02:29:26.517Z,4.00
2019-02-12T02:31:55.405Z,2.83
2019-02-12T02:34:24.718Z,2.83
2019-02-12T02:36:53.809Z,3.37
2019-02-12T02:39:23.005Z,3.37
2019-02-12T02:41:52.214Z,2.50
2019-02-12T02:44:21.089Z,3.10
2019-02-12T02:46:49.899Z,2.00
2019-02-12T02:49:18.972Z,2.17
2019-02-12T02:51:53.652Z,2.20
2019-02-12T02:54:18.357Z,1.83
2019-02-12T02:56:47.145Z,2.10
2019-02-12T02:59:16.175Z,2.00
2019-02-12T03:01:45.270Z,3.30
2019-02-12T03:04:14.078Z,2.97
2019-02-12T03:06:43.163Z,2.27
2019-02-12T03:09:11.957Z,2.10
2019-02-12T03:11:40.837Z,2.97
2019-02-12T03:14:09.628Z,2.93
2019-02-12T03:16:38.723Z,3.20
2019-02-12T03:19:07.513Z,2.63
2019-02-12T03:21:36.322Z,3.63
2019-02-12T03:24:05.188Z,3.17
2019-02-12T03:26:34.001Z,3.30
2019-02-12T03:29:02.861Z,3.00
2019-02-12T03:31:31.691Z,3.37
2019-02-12T03:34:01.170Z,2.87
2019-02-12T03:36:30.261Z,2.20
2019-02-12T03:38:59.044Z,2.60
2019-02-12T03:41:27.849Z,2.50
2019-02-12T03:43:56.763Z,2.37
2019-02-12T03:46:25.642Z,1.93
2019-02-12T03:48:54.854Z,2.07
2019-02-12T03:51:23.648Z,2.27
2019-02-12T03:53:52.516Z,2.63
2019-02-12T03:56:21.312Z,2.40
2019-02-12T03:58:50.175Z,2.50
2019-02-12T04:01:19.045Z,2.70
2019-02-12T04:03:47.964Z,2.13
2019-02-12T04:06:16.876Z,2.43
2019-02-12T04:08:46.046Z,2.47
2019-02-12T04:11:14.826Z,2.00
2019-02-12T04:13:43.621Z,2.20
2019-02-12T04:16:12.540Z,2.43
2019-02-12T04:18:41.323Z,2.93
2019-02-12T04:21:10.198Z,2.80
2019-02-12T04:23:39.017Z,3.13
2019-02-12T04:26:07.810Z,2.53
2019-02-12T04:28:38.597Z,2.20
2019-02-12T04:31:07.475Z,2.90
2019-02-12T04:33:36.256Z,2.60
2019-02-12T04:36:05.372Z,2.77
2019-02-12T04:38:34.158Z,2.30
2019-02-12T04:41:03.234Z,2.40
2019-02-12T04:43:32.493Z,2.67
2019-02-12T04:46:01.257Z,3.10
2019-02-12T04:48:30.148Z,3.07
2019-02-12T04:50:58.929Z,3.53
2019-02-12T04:53:27.724Z,2.70
2019-02-12T04:55:56.575Z,2.87
2019-02-12T04:58:25.367Z,2.80
2019-02-12T05:00:54.161Z,2.87
2019-02-12T05:03:22.966Z,3.47
2019-02-12T05:05:51.762Z,2.47
2019-02-12T05:08:20.544Z,3.60
2019-02-12T05:10:57.152Z,3.30
2019-02-12T05:13:25.955Z,4.30
2019-02-12T05:15:54.803Z,3.97
2019-02-12T05:18:23.667Z,2.80
2019-02-12T05:20:52.488Z,3.03
2019-02-12T05:23:21.295Z,2.60
2019-02-12T05:25:50.064Z,3.10
2019-02-12T05:28:19.146Z,2.70
2019-02-12T05:30:47.921Z,2.30
2019-02-12T05:33:16.704Z,2.73
2019-02-12T05:35:45.493Z,3.80
2019-02-12T05:38:14.306Z,2.90
2019-02-12T05:40:43.088Z,2.67
2019-02-12T05:43:11.872Z,3.30
2019-02-12T05:45:40.957Z,2.70
2019-02-12T05:48:09.761Z,2.80
2019-02-12T05:50:38.841Z,3.13
2019-02-12T05:53:08.267Z,3.33
2019-02-12T05:55:37.093Z,3.07
2019-02-12T05:58:05.934Z,3.07
2019-02-12T06:00:34.808Z,3.60
2019-02-12T06:03:03.613Z,2.83
2019-02-12T06:05:32.468Z,3.43
2019-02-12T06:08:01.274Z,4.00
2019-02-12T06:10:30.050Z,2.57
2019-02-12T06:12:58.915Z,3.23
2019-02-12T06:15:27.717Z,3.70
2019-02-12T06:17:56.501Z,3.13
2019-02-12T06:20:25.358Z,3.50
2019-02-12T06:23:03.009Z,3.10
2019-02-12T06:25:24.992Z,3.67
2019-02-12T06:27:54.182Z,3.70
2019-02-12T06:30:22.953Z,3.97
2019-02-12T06:32:51.745Z,3.03
2019-02-12T06:35:20.828Z,3.50
2019-02-12T06:37:49.608Z,3.30
2019-02-12T06:40:18.726Z,3.07
2019-02-12T06:42:47.598Z,3.10
2019-02-12T06:45:16.422Z,3.10
2019-02-12T06:47:45.205Z,3.07
2019-02-12T06:50:14.076Z,3.60
2019-02-12T06:52:42.866Z,3.80
2019-02-12T06:55:11.833Z,5.17
2019-02-12T06:57:40.941Z,4.30
2019-02-12T07:00:09.949Z,3.10
2019-02-12T07:03:10.150Z,5.03
2019-02-12T07:05:40.778Z,3.93
2019-02-12T07:08:25.438Z,2.80
2019-02-12T07:10:55.005Z,3.67
2019-02-12T07:13:38.420Z,4.00
2019-02-12T07:16:53.060Z,3.70
2019-02-12T07:19:44.952Z,4.00
2019-02-12T07:22:46.467Z,3.37
2019-02-12T07:25:52.582Z,3.40
2019-02-12T07:28:54.940Z,3.93
2019-02-12T07:31:59.857Z,3.73
2019-02-12T07:34:53.336Z,3.33
2019-02-12T07:37:40.437Z,2.80
2019-02-12T07:40:58.840Z,3.50
2019-02-12T07:44:07.925Z,3.20
2019-02-12T07:47:29.862Z,4.17
2019-02-12T07:50:34.587Z,3.30
2019-02-12T07:53:38.130Z,3.80
2019-02-12T07:56:18.270Z,3.47
2019-02-12T07:58:57.605Z,4.20
2019-02-12T08:01:55.513Z,3.33
2019-02-12T08:05:07.560Z,3.07
2019-02-12T08:08:12.807Z,3.80
2019-02-12T08:11:15.613Z,3.33
2019-02-12T08:14:29.352Z,3.10
2019-02-12T08:17:39.417Z,4.07
2019-02-12T08:21:10.781Z,3.37
2019-02-12T08:24:16.612Z,3.20
2019-02-12T08:27:11.922Z,3.67
2019-02-12T08:30:34.533Z,3.33
2019-02-12T08:34:02.945Z,3.00
2019-02-12T08:37:05.252Z,2.93
2019-02-12T08:40:01.145Z,3.27
2019-02-12T08:42:43.670Z,2.80
2019-02-12T08:45:45.328Z,3.83
2019-02-12T08:48:51.485Z,3.83
2019-02-12T08:51:50.182Z,3.10
2019-02-12T08:55:06.409Z,2.70
2019-02-12T08:58:05.574Z,3.30
2019-02-12T09:00:59.953Z,3.60
2019-02-12T09:04:01.265Z,3.53
2019-02-12T09:07:11.492Z,3.03
2019-02-12T09:10:14.694Z,3.00
2019-02-12T09:13:13.382Z,3.50
2019-02-12T09:16:57.223Z,2.90
2019-02-12T09:19:37.216Z,2.33
2019-02-12T09:22:36.168Z,2.30
2019-02-12T09:25:36.284Z,2.73
2019-02-12T09:28:19.888Z,2.90
2019-02-12T09:31:25.769Z,2.50
2019-02-12T09:34:21.093Z,2.43
2019-02-12T09:37:18.398Z,3.03
2019-02-12T09:40:19.616Z,2.63
2019-02-12T09:43:39.039Z,2.83
2019-02-12T09:46:24.683Z,2.00
2019-02-12T09:49:06.729Z,2.50
2019-02-12T09:52:14.488Z,2.80
2019-02-12T09:55:12.118Z,2.40
2019-02-12T09:58:06.552Z,2.50
2019-02-12T10:00:40.081Z,2.20
2019-02-12T10:03:40.616Z,2.50
2019-02-12T10:06:42.015Z,2.40
2019-02-12T10:09:37.384Z,2.47
2019-02-12T10:12:33.422Z,2.83
2019-02-12T10:15:35.837Z,2.00
2019-02-12T10:18:33.980Z,2.20
2019-02-12T10:21:32.337Z,2.20
2019-02-12T10:24:45.429Z,2.70
2019-02-12T10:28:00.754Z,2.10
2019-02-12T10:30:50.474Z,2.30
2019-02-12T10:33:19.286Z,3.03
2019-02-12T10:35:48.100Z,1.93
2019-02-12T10:38:17.155Z,2.13
2019-02-12T10:40:45.996Z,2.10
2019-02-12T10:43:14.781Z,2.63
2019-02-12T10:45:43.564Z,2.30
2019-02-12T10:48:12.439Z,2.60
2019-02-12T10:50:41.226Z,2.60
2019-02-12T10:53:10.088Z,2.13
2019-02-12T10:55:39.324Z,1.70
2019-02-12T10:58:08.611Z,2.00
2019-02-12T11:00:38.402Z,2.70
2019-02-12T11:03:07.224Z,2.10
2019-02-12T11:05:36.490Z,1.60
2019-02-12T11:08:05.525Z,2.30
2019-02-12T11:10:34.528Z,2.23
2019-02-12T11:13:03.388Z,3.63
2019-02-12T11:15:32.253Z,1.83
2019-02-12T11:18:01.069Z,2.10
2019-02-12T11:20:30.016Z,2.30
2019-02-12T11:22:58.804Z,1.67
2019-02-12T11:25:27.652Z,1.77
2019-02-12T11:27:56.699Z,1.80
2019-02-12T11:30:26.056Z,1.90
2019-02-12T11:32:54.948Z,1.80
2019-02-12T11:35:23.836Z,1.57
2019-02-12T11:37:52.649Z,1.87
2019-02-12T11:40:21.546Z,2.17
2019-02-12T11:42:50.322Z,2.07
2019-02-12T11:45:19.193Z,2.23
2019-02-12T11:47:47.982Z,2.10
2019-02-12T11:50:16.858Z,1.90
2019-02-12T11:52:45.649Z,1.83
2019-02-12T11:55:14.935Z,1.90
2019-02-12T11:57:43.740Z,2.13
2019-02-12T12:00:14.951Z,1.90
2019-02-12T12:02:43.757Z,1.63
2019-02-12T12:05:12.930Z,1.53
2019-02-12T12:07:42.202Z,1.83
2019-02-12T12:10:11.189Z,1.47
2019-02-12T12:12:40.433Z,1.77
2019-02-12T12:15:09.463Z,1.80
2019-02-12T12:17:38.277Z,1.73
2019-02-12T12:20:08.063Z,1.67
2019-02-12T12:22:36.919Z,2.00
2019-02-12T12:25:06.373Z,2.20
2019-02-12T12:27:35.232Z,2.50
2019-02-12T12:30:04.544Z,1.97
2019-02-12T12:32:33.368Z,1.70
2019-02-12T12:35:02.165Z,1.57
2019-02-12T12:37:30.937Z,1.30
2019-02-12T12:39:59.731Z,1.70
2019-02-12T12:42:28.509Z,1.63
2019-02-12T12:44:57.739Z,1.80
2019-02-12T12:47:26.541Z,1.57
2019-02-12T12:49:55.345Z,1.63
2019-02-12T12:52:24.510Z,1.90
2019-02-12T12:54:59.731Z,1.70
2019-02-12T12:57:23.944Z,1.63
2019-02-12T12:59:52.744Z,1.83
2019-02-12T13:02:21.917Z,1.90
2019-02-12T13:04:50.997Z,1.20
2019-02-12T13:07:20.213Z,2.03
2019-02-12T13:09:49.169Z,1.47
2019-02-12T13:12:18.303Z,1.63
2019-02-12T13:14:47.379Z,2.00
2019-02-12T13:17:16.480Z,1.40
2019-02-12T13:19:45.269Z,1.97
2019-02-12T13:22:14.141Z,2.00
2019-02-12T13:24:43.281Z,1.57
2019-02-12T13:27:12.061Z,1.87
2019-02-12T13:29:40.856Z,1.70
2019-02-12T13:32:09.652Z,1.80
2019-02-12T13:34:38.826Z,2.37
2019-02-12T13:37:07.624Z,1.80
2019-02-12T13:39:36.660Z,2.50
2019-02-12T13:42:05.530Z,2.90
2019-02-12T13:44:34.314Z,1.70
2019-02-12T13:47:03.104Z,1.73
2019-02-12T13:49:32.159Z,1.50
2019-02-12T13:52:00.967Z,2.00
2019-02-12T13:54:29.785Z,2.00
2019-02-12T13:56:59.264Z,2.00
2019-02-12T13:59:28.495Z,2.23
2019-02-12T14:01:57.371Z,2.30
2019-02-12T14:04:26.175Z,1.90
2019-02-12T14:06:55.510Z,1.87
2019-02-12T14:09:24.365Z,2.37
2019-02-12T14:11:53.240Z,1.50
2019-02-12T14:14:22.302Z,1.87
2019-02-12T14:16:51.403Z,3.17
2019-02-12T14:19:20.491Z,2.17
2019-02-12T14:21:49.363Z,2.10
2019-02-12T14:24:18.157Z,1.77
2019-02-12T14:26:47.269Z,2.37
2019-02-12T14:29:16.169Z,1.70
2019-02-12T14:31:52.877Z,1.93
2019-02-12T14:34:15.588Z,1.67
2019-02-12T14:36:44.996Z,1.70
2019-02-12T14:39:13.877Z,1.97
2019-02-12T14:41:42.666Z,2.10
2019-02-12T14:44:11.758Z,2.07
2019-02-12T14:46:40.972Z,1.60
2019-02-12T14:49:09.767Z,2.17
2019-02-12T14:51:38.556Z,1.60
2019-02-12T14:54:07.524Z,1.63
2019-02-12T14:56:36.622Z,1.93
2019-02-12T14:59:05.826Z,1.90
2019-02-12T15:01:34.716Z,2.27
2019-02-12T15:04:03.863Z,1.87
2019-02-12T15:06:33.104Z,1.70
2019-02-12T15:09:02.361Z,2.07
2019-02-12T15:11:31.228Z,2.40
2019-02-12T15:14:00.020Z,1.70
2019-02-12T15:16:28.914Z,2.27
2019-02-12T15:18:57.973Z,2.10
2019-02-12T15:21:26.904Z,2.20
2019-02-12T15:23:55.707Z,1.73
2019-02-12T15:26:24.500Z,1.80
2019-02-12T15:28:53.335Z,1.70
2019-02-12T15:31:22.220Z,2.37
2019-02-12T15:33:51.324Z,1.93
2019-02-12T15:36:20.115Z,2.00
2019-02-12T15:38:48.916Z,2.10
2019-02-12T15:41:17.741Z,1.63
2019-02-12T15:43:46.873Z,1.77
2019-02-12T15:46:15.674Z,2.20
2019-02-12T15:48:44.866Z,2.00
2019-02-12T15:51:13.759Z,2.90
2019-02-12T15:53:42.562Z,2.20
2019-02-12T15:56:11.732Z,1.50
2019-02-12T15:58:40.620Z,2.00
2019-02-12T16:01:09.568Z,1.90
2019-02-12T16:03:38.931Z,1.90
2019-02-12T16:06:08.028Z,1.80
2019-02-12T16:08:36.844Z,1.70
2019-02-12T16:11:05.644Z,2.37
2019-02-12T16:13:35.182Z,2.07
2019-02-12T16:16:05.741Z,2.07
2019-02-12T16:18:35.785Z,1.70
2019-02-12T16:21:04.668Z,1.70
2019-02-12T16:23:33.848Z,2.03
2019-02-12T16:26:02.674Z,2.37
2019-02-12T16:28:31.745Z,2.90
2019-02-12T16:31:00.540Z,1.93
2019-02-12T16:33:29.350Z,2.40
2019-02-12T16:35:58.305Z,2.10
2019-02-12T16:38:27.121Z,2.00
2019-02-12T16:40:55.917Z,2.07
2019-02-12T16:43:24.733Z,2.10
2019-02-12T16:45:57.936Z,2.57
2019-02-12T16:48:26.765Z,1.97
2019-02-12T16:50:55.567Z,1.77
2019-02-12T16:53:24.383Z,1.83
2019-02-12T16:55:53.399Z,1.90
2019-02-12T16:58:22.217Z,2.40
2019-02-12T17:00:51.009Z,1.60
2019-02-12T17:03:20.687Z,1.80
2019-02-12T17:05:49.641Z,1.80
2019-02-12T17:08:18.494Z,1.77
2019-02-12T17:10:47.596Z,1.53
2019-02-12T17:13:18.634Z,5.80
2019-02-12T17:15:47.553Z,6.33
2019-02-12T17:18:16.484Z,3.57
2019-02-12T17:20:45.609Z,2.20
2019-02-12T17:23:14.496Z,2.23
2019-02-12T17:25:43.569Z,1.73
2019-02-12T17:28:12.607Z,2.10
2019-02-12T17:30:41.777Z,2.13
2019-02-12T17:33:10.560Z,2.20
2019-02-12T17:35:39.470Z,2.37
2019-02-12T17:38:08.432Z,1.97
2019-02-12T17:40:37.556Z,2.00
2019-02-12T17:43:06.446Z,2.07
2019-02-12T17:45:35.245Z,1.93
2019-02-12T17:48:04.296Z,1.83
2019-02-12T17:50:33.853Z,1.97
2019-02-12T17:53:02.837Z,2.50
2019-02-12T17:55:32.318Z,2.10
2019-02-12T17:58:01.336Z,2.17
2019-02-12T18:00:33.977Z,2.67
2019-02-12T18:03:02.914Z,2.40
2019-02-12T18:05:31.985Z,2.67
2019-02-12T18:08:02.001Z,2.30
2019-02-12T18:10:31.131Z,2.50
2019-02-12T18:13:01.516Z,1.60
2019-02-12T18:15:31.615Z,2.00
2019-02-12T18:18:00.595Z,2.40
2019-02-12T18:20:29.885Z,2.27
2019-02-12T18:22:58.727Z,2.80
2019-02-12T18:25:28.590Z,2.40
2019-02-12T18:27:58.039Z,3.20
2019-02-12T18:30:27.686Z,2.83
2019-02-12T18:32:57.679Z,1.70
2019-02-12T18:35:27.849Z,2.30
2019-02-12T18:37:57.194Z,2.30
2019-02-12T18:40:26.162Z,2.50
2019-02-12T18:42:55.037Z,2.90
2019-02-12T18:45:24.887Z,2.67
2019-02-12T18:47:54.188Z,2.90
2019-02-12T18:50:23.217Z,3.83
2019-02-12T18:52:52.277Z,3.20
2019-02-12T18:55:21.259Z,2.40
2019-02-12T18:57:50.327Z,2.90
2019-02-12T19:00:19.457Z,3.73
2019-02-12T19:02:48.639Z,2.23
2019-02-12T19:05:17.718Z,2.60
2019-02-12T19:07:46.736Z,2.90
2019-02-12T19:10:16.626Z,3.00
2019-02-12T19:12:45.973Z,9.27
2019-02-12T19:15:15.801Z,3.30
2019-02-12T19:17:48.040Z,2.50
2019-02-12T19:20:17.334Z,2.17
2019-02-12T19:22:46.871Z,2.20
2019-02-12T19:25:16.061Z,3.13
2019-02-12T19:27:45.325Z,2.50
2019-02-12T19:30:16.266Z,1.90
2019-02-12T19:32:45.307Z,2.60
2019-02-12T19:35:14.628Z,3.50
2019-02-12T19:37:43.554Z,3.00
2019-02-12T19:40:12.548Z,2.37
2019-02-12T19:42:41.525Z,2.63
2019-02-12T19:45:10.889Z,2.57
2019-02-12T19:47:39.865Z,2.40
2019-02-12T19:50:09.654Z,2.00
2019-02-12T19:52:39.061Z,2.30
2019-02-12T19:55:08.240Z,2.40
2019-02-12T19:57:37.215Z,3.47
2019-02-12T20:00:09.545Z,2.63
2019-02-12T20:02:38.447Z,3.20
2019-02-12T20:05:07.971Z,2.90
2019-02-12T20:07:36.778Z,2.70
2019-02-12T20:10:06.656Z,2.30
2019-02-12T20:12:35.666Z,2.40
2019-02-12T20:15:05.254Z,3.03
2019-02-12T20:17:34.183Z,2.97
2019-02-12T20:20:03.198Z,2.80
2019-02-12T20:22:32.040Z,3.67
2019-02-12T20:25:00.985Z,2.30
2019-02-12T20:27:35.810Z,2.97
2019-02-12T20:30:00.904Z,2.97
2019-02-12T20:32:30.289Z,2.70
2019-02-12T20:35:00.049Z,3.37
2019-02-12T20:37:29.068Z,3.33
2019-02-12T20:39:57.881Z,7.53
2019-02-12T20:42:27.088Z,3.93
2019-02-12T20:44:58.740Z,3.47
2019-02-12T20:47:27.613Z,2.73
2019-02-12T20:49:56.833Z,3.23
2019-02-12T20:52:25.828Z,2.73
2019-02-12T20:54:54.621Z,3.70
2019-02-12T20:57:23.556Z,2.70
2019-02-12T20:59:52.419Z,3.47
2019-02-12T21:02:21.426Z,3.13
2019-02-12T21:04:50.672Z,3.00
2019-02-12T21:07:19.941Z,3.87
2019-02-12T21:09:48.806Z,3.30
2019-02-12T21:12:17.652Z,3.47
2019-02-12T21:14:46.639Z,2.97
2019-02-12T21:17:15.448Z,4.50
2019-02-12T21:19:44.822Z,3.50
2019-02-12T21:22:13.780Z,3.20
2019-02-12T21:24:42.741Z,4.70
2019-02-12T21:27:11.562Z,3.60
2019-02-12T21:29:40.838Z,4.57
2019-02-12T21:32:10.087Z,4.40
2019-02-12T21:34:39.037Z,4.20
2019-02-12T21:37:07.828Z,5.13
2019-02-12T21:39:37.078Z,5.17
2019-02-12T21:42:05.959Z,4.00
2019-02-12T21:44:35.792Z,4.80
2019-02-12T21:47:04.607Z,4.47
2019-02-12T21:49:33.485Z,6.00
2019-02-12T21:52:02.638Z,4.93
2019-02-12T21:54:31.501Z,4.60
2019-02-12T21:57:00.814Z,4.60
2019-02-12T21:59:29.758Z,4.43
2019-02-12T22:01:58.884Z,4.40
2019-02-12T22:04:27.970Z,4.23
2019-02-12T22:06:57.206Z,3.80
2019-02-12T22:09:26.043Z,5.00
2019-02-12T22:11:55.287Z,3.60
2019-02-12T22:14:24.120Z,3.73
2019-02-12T22:16:53.008Z,3.63
2019-02-12T22:19:21.805Z,4.93
2019-02-12T22:21:50.676Z,4.50
2019-02-12T22:24:19.585Z,4.23
2019-02-12T22:26:48.864Z,5.30
2019-02-12T22:29:17.679Z,5.10
2019-02-12T22:31:46.472Z,4.23
2019-02-12T22:34:15.310Z,4.63
2019-02-12T22:36:44.112Z,3.80
2019-02-12T22:39:13.032Z,3.93
2019-02-12T22:41:41.924Z,4.57
2019-02-12T22:44:10.737Z,4.93
2019-02-12T22:46:39.853Z,5.03
2019-02-12T22:49:08.802Z,3.23
2019-02-12T22:51:37.631Z,4.70
2019-02-12T22:54:06.409Z,4.10
2019-02-12T22:56:35.380Z,4.67
2019-02-12T22:59:04.633Z,4.30
2019-02-12T23:01:37.100Z,6.47
2019-02-12T23:04:06.216Z,5.90
2019-02-12T23:06:35.200Z,4.37
2019-02-12T23:09:06.064Z,3.93
2019-02-12T23:11:34.848Z,4.30
2019-02-12T23:14:03.658Z,4.90
2019-02-12T23:16:32.822Z,3.67
2019-02-12T23:19:01.706Z,4.00
2019-02-12T23:21:30.748Z,4.53
2019-02-12T23:23:59.600Z,4.83
2019-02-12T23:26:28.410Z,5.40
2019-02-12T23:28:57.447Z,4.53
2019-02-12T23:31:26.293Z,4.13
2019-02-12T23:33:55.102Z,4.43
2019-02-12T23:36:23.888Z,3.83
2019-02-12T23:38:52.721Z,4.10
2019-02-12T23:41:21.620Z,4.30
2019-02-12T23:43:51.028Z,3.57
2019-02-12T23:46:19.924Z,4.03
2019-02-12T23:48:48.933Z,4.50
2019-02-12T23:51:18.315Z,4.77
2019-02-12T23:53:47.245Z,3.43
2019-02-12T23:56:16.088Z,4.90
2019-02-12T23:58:45.024Z,5.00
